Terminal Aerodrome Forecast
Issued by NWS

Home | Current Version | Previous Version | Text Only | Print | Product List | Glossary Off
Versions: 1 2 3 4 5 6 7 8 9 10 11 12 13 14 15 16 17

000
FTUS43 KABR 230522
TAFATY
TAF
KATY 230522Z 2306/2406 17016G23KT P6SM BKN250 WS020/20045KT
     FM231300 18014G21KT P6SM SCT250
     FM240000 22010KT P6SM VCTS SCT050CB BKN150=

USA.gov is the U.S. government's official web portal to all federal, state and local government web resources and services.